Powhatand, Virginia
Current Conditions -  °F | °C
As of 8:55 AM on Friday 28 Nov 2014 (Local Time) from KFCI Reporting Station
Clear Clear  
Wind Chill: 33°   Ceiling: Unl
Heat Index: 37°   Visibility: 10mi
Dew Point: 18°   Wind: 6mph
Humidity: 45%   Direction: 310°NW
Pressure: 30.33"   Gusts: NA
Location:  37.5492°N, 77.935°W
Report Text: KFCI 281355Z AUTO 31005KT 10SM CLR 03/M08 A3033 RMK AO1
Loading
Personal Weather Stations






























Interactive Weather Map New forecast layout! Learn more

10-Day Weather Forecast

Advertisements
Track Severe Weather on mobile